Terminal Aerodrome Forecast
Issued by NWS

Home | Current Version | Previous Version | Text Only | Print | Product List | Glossary On
Versions: 1 2 3 4 5 6 7 8 9 10 11 12 13
000
FTUS45 KGGW 211700
TAFSDY
TAF
KSDY 211730Z 2118/2218 04006KT P6SM VCSH SCT080 BKN140
      TEMPO 2119/2122 P6SM -TSRA BKN050CB
     FM220000 01012KT P6SM BKN080
      TEMPO 2202/2206 P6SM -TSRA BKN050CB
     FM220800 VRB05KT P6SM SCT080 BKN140
      AMD LTD TO CLD VIS AND WIND=

USA.gov is the U.S. government's official web portal to all federal, state and local government web resources and services.